Flight Track Log - Related Links

Times and Time Zones

All times are in EDT time to prevent confusion due to time zone crossing. See the AAL532 flight status page for this flight to view local times or setup timezone preferences in your user account.

Time Position Orientation Groundspeed Altitude Reporting Facility
EDT Latitude Longitude Course Direction KTS MPH feet Rate Location/Type
Sat 11:12:46 PM 42.0000 -87.9333 95° East 155 178 1,700  Level Chicago TRACON
Sat 11:13:46 PM 42.0333 -87.9833 312° West 213 245 3,700 2,043 Climbing Chicago TRACON
Sat 11:14:00 PM 41.9667 -87.6096 90° East  Level FlightAware Approximate
Sat 11:15:00 PM 41.9582 -87.4651 96° East  Level FlightAware Approximate
Sat 11:15:00 PM 41.9936 -87.8123 90° East  Level Estimated
Sat 11:16:00 PM 41.9468 -87.3207 95° East  Level FlightAware Approximate
Sat 11:17:00 PM 41.9364 -87.1763 95° East  Level FlightAware Approximate
Sat 11:22:00 PM 41.7636 -86.8455 85° East  Level Estimated
Sat 11:23:00 PM 41.7301 -86.7080 90° East  Level Estimated
Sat 11:24:00 PM 41.6964 -86.5706 90° East  Level Estimated
Sat 11:25:00 PM 41.7696 -86.4642 47° Northeast  Level FlightAware Approximate
Sat 11:26:00 PM 41.8123 -86.3337 66° East  Level FlightAware Approximate
Sat 11:27:00 PM 41.7765 -86.1995 103° East  Level Estimated
Sat 11:28:00 PM 41.7406 -86.0654 98° East  Level Estimated
Sat 11:29:00 PM 41.7046 -85.9315 90° East  Level Estimated
Sat 11:30:00 PM 41.6684 -85.7977 99° East  Level Estimated
Sat 11:31:00 PM 41.7359 -85.6878 50° Northeast  Level FlightAware Approximate
Sat 11:32:00 PM 41.6982 -85.5548 98° East  Level Estimated
Sat 11:32:00 PM 41.8022 -85.5533 103° East 416 479 41,000  Level Cleveland Center
Sat 11:33:00 PM 41.7839 -85.3931 99° East 428 493 41,000  Level Cleveland Center
Sat 11:33:00 PM 41.6603 -85.4218 100° East  Level Estimated
Sat 11:34:00 PM 41.6694 -85.2801 85° East  Level FlightAware Approximate
Sat 11:34:00 PM 41.7633 -85.2356 100° East 428 493 41,000  Level Cleveland Center
Sat 11:35:00 PM 41.7467 -85.0811 98° East 428 493 41,000  Level Cleveland Center
Sat 11:35:00 PM 41.6783 -85.1383 85° East  Level FlightAware Approximate
Sat 11:36:00 PM 41.6871 -84.9965 85° East  Level FlightAware Approximate
Sat 11:36:00 PM 41.7250 -84.9350 101° East 421 484 41,000  Level Cleveland Center
Sat 11:37:00 PM 41.6465 -84.8651 103° East  Level Estimated
Sat 11:37:00 PM 41.7058 -84.7806 99° East 415 478 41,000  Level Cleveland Center
Sat 11:38:00 PM 41.6864 -84.6264 100° East 415 478 41,000  Level Cleveland Center
Sat 11:39:00 PM 41.6306 -84.4894 119° Southeast 402 463 41,000  Level Cleveland Center
Sat 11:40:00 PM 41.5703 -84.3608 122° Southeast 408 470 41,000  Level Cleveland Center
Sat 11:41:00 PM 41.5114 -84.2492 125° Southeast 414 476 41,000  Level Cleveland Center
Sat 11:42:00 PM 41.4528 -84.1214 121° Southeast 414 476 41,000  Level Cleveland Center
Sat 11:43:00 PM 41.3922 -83.9933 122° Southeast 408 470 41,000  Level Cleveland Center
Sat 11:44:00 PM 41.3314 -83.8631 122° Southeast 408 470 41,000  Level Cleveland Center
Sat 11:45:00 PM 41.2683 -83.7325 123° Southeast 408 470 41,000  Level Cleveland Center
Sat 11:46:00 PM 41.2092 -83.6056 122° Southeast 408 470 41,000  Level Cleveland Center
Sat 11:47:00 PM 41.1478 -83.4786 123° Southeast 408 470 41,000  Level Cleveland Center
Sat 11:48:00 PM 41.0825 -83.3325 121° Southeast 408 470 41,000 -50 Level Cleveland Center
Sat 11:49:00 PM 41.0189 -83.2003 122° Southeast 419 482 40,900  Descending Cleveland Center
Sat 11:50:00 PM 40.9611 -83.0881 124° Southeast 425 489 41,000 50 Climbing Cleveland Center
Sat 11:51:00 PM 40.8972 -82.9567 123° Southeast 425 489 41,000 -50 Level Cleveland Center
Sat 11:52:00 PM 40.8353 -82.8253 122° Southeast 425 489 40,900  Descending Cleveland Center
Sat 11:54:17 PM 40.6842 -82.5192 123° Southeast 425 489 41,000 30 Climbing Indianapolis Center
Sat 11:55:17 PM 40.6192 -82.3872 123° Southeast 426 490 41,000  Level Indianapolis Center
Sat 11:56:18 PM 40.5547 -82.2561 123° Southeast 426 490 41,000  Level Indianapolis Center
Sat 11:57:18 PM 40.4894 -82.1258 123° Southeast 425 489 41,000  Level Indianapolis Center
Sat 11:58:12 PM 40.4311 -82.0178 125° Southeast 435 501 41,000  Level Cleveland Center
Sat 11:59:12 PM 40.3681 -81.8883 123° Southeast 431 496 41,000 -50 Level Cleveland Center
Sun 12:00:12 AM 40.3050 -81.7428 120° Southeast 425 489 40,900  Descending Cleveland Center
Sun 12:01:12 AM 40.2606 -81.6222 116° Southeast 411 473 41,000 50 Climbing Cleveland Center
Sun 12:02:12 AM 40.2053 -81.4911 119° Southeast 406 467 41,000  Level Cleveland Center
Sun 12:03:12 AM 40.1519 -81.3600 118° Southeast 406 467 41,000  Level Cleveland Center
Sun 12:04:12 AM 40.0986 -81.2292 118° Southeast 406 467 41,000  Level Cleveland Center
Sun 12:05:12 AM 40.0450 -81.0983 118° Southeast 406 467 41,000  Level Cleveland Center
Sun 12:06:12 AM 39.9914 -80.9678 118° Southeast 406 467 41,000  Level Cleveland Center
Sun 12:07:12 AM 39.9356 -80.8403 120° Southeast 406 467 41,000  Level Cleveland Center
Sun 12:09:20 AM 39.8153 -80.5503 118° Southeast 412 474 41,000  Level Indianapolis Center
Sun 12:10:20 AM 39.7764 -80.4097 110° East 411 473 41,000  Level Indianapolis Center
Sun 12:11:26 AM 39.7397 -80.2683 109° East 405 466 41,000  Level Washington Center
Sun 12:12:25 AM 39.6992 -80.1281 111° Southeast 410 472 41,000  Level Washington Center
Sun 12:13:25 AM 39.6564 -79.9878 112° Southeast 415 478 41,000 -397 Level Washington Center
Sun 12:14:26 AM 39.6136 -79.8450 111° Southeast 420 483 40,200 -836 Descending Washington Center
Sun 12:15:27 AM 39.5728 -79.7028 110° East 420 483 39,300 -966 Descending Washington Center
Sun 12:16:24 AM 39.5317 -79.5631 111° Southeast 420 483 38,300 -974 Descending Washington Center
Sun 12:17:24 AM 39.4883 -79.4208 112° Southeast 420 483 37,400 -1,140 Descending Washington Center
Sun 12:18:25 AM 39.4447 -79.2814 112° Southeast 420 483 36,000 -2,529 Descending Washington Center
Sun 12:19:25 AM 39.4011 -79.1314 111° Southeast 425 489 32,300 -3,450 Descending Washington Center
Sun 12:20:25 AM 39.3556 -78.9844 112° Southeast 430 495 29,100 -2,950 Descending Washington Center
Sun 12:21:25 AM 39.3114 -78.8400 112° Southeast 435 501 26,400 -2,700 Descending Washington Center
Sun 12:22:25 AM 39.2692 -78.7014 111° Southeast 425 489 23,700 -2,700 Descending Washington Center
Sun 12:23:25 AM 39.2289 -78.5711 112° Southeast 413 475 21,000 -2,600 Descending Washington Center
Sun 12:24:25 AM 39.1881 -78.4436 112° Southeast 394 453 18,500 -2,350 Descending Washington Center
Sun 12:25:25 AM 39.1536 -78.3192 110° East 381 438 16,300 -2,050 Descending Washington Center
Sun 12:26:25 AM 39.1228 -78.1975 108° East 369 425 14,400 -1,900 Descending Washington Center
Sun 12:27:25 AM 39.0939 -78.0869 109° East 349 402 12,500 -1,537 Descending Washington Center
Sun 12:28:26 AM 39.0608 -77.9656 109° East 333 383 11,300 -756 Descending Washington Center
Sun 12:29:24 AM 39.0358 -77.8578 107° East 319 367 11,000 -149 Descending Washington Center
Sun 12:30:27 AM 39.0106 -77.7581 108° East 306 352 11,000 -49 Level Washington Center
Sun 12:31:27 AM 38.9853 -77.6667 110° East 277 319 10,900 -763 Descending Washington Center
Sun 12:32:25 AM 38.9656 -77.5858 107° East 257 296 9,500 -1,636 Descending Washington Center
Sun 12:32:44 AM 38.9500 -77.5500 119° Southeast 236 272 8,800 -1,063 Descending Potomac TRACON
Sun 12:33:44 AM 38.9333 -77.4833 108° East 251 289 8,100 -950 Descending Potomac TRACON
Sun 12:34:44 AM 38.9500 -77.4000 76° East 222 255 6,900 -1,238 Descending Potomac TRACON
Sun 12:35:50 AM 38.9833 -77.3167 63° Northeast 214 246 5,500 -1,190 Descending Potomac TRACON
Sun 12:36:50 AM 38.9833 -77.2500 90° East 181 208 4,400 -1,000 Descending Potomac TRACON
Sun 12:37:50 AM 38.9833 -77.2000 90° East 171 197 3,500 -950 Descending Potomac TRACON
Sun 12:38:50 AM 38.9500 -77.1500 131° Southeast 171 197 2,500 -900 Descending Potomac TRACON
Sun 12:39:50 AM 38.9167 -77.1167 142° Southeast 137 158 1,700 -684 Descending Potomac TRACON
Sun 12:40:44 AM 38.9000 -77.0833 123° Southeast 121 139 1,200 -368 Descending Potomac TRACON
Sun 12:41:44 AM 38.8833 -77.0500 123° Southeast 122 140 1,000 -200 Descending Potomac TRACON

Login

Don't have an account? Register now (free) for customized features, flight alerts, and more!